Time;durP1;ratioP1;P1;durP2;ratioP2;P2;SDS_P1;SDS_P2;PMS_P1;PMS_P2;Temp;Humidity;BMP_temperature;BMP_pressure;BME280_temperature;BME280_humidity;BME280_pressure;Samples;Min_cycle;Max_cycle;Signal;HPM_P1;HPM_P2
2021/06/30 00:01:03;;;;;;;17.48;16.00;;;15.60;81.40;;;;;;5010569;29;20045;-70
2021/06/30 00:03:40;;;;;;;17.40;15.90;;;15.50;80.90;;;;;;5014913;29;20094;-70
2021/06/30 00:06:18;;;;;;;17.80;16.40;;;15.60;80.80;;;;;;5012794;29;20060;-72
2021/06/30 00:08:55;;;;;;;17.70;16.17;;;15.60;81.80;;;;;;5013951;29;20106;-70
2021/06/30 00:11:32;;;;;;;17.38;16.00;;;15.60;83.20;;;;;;5014373;29;20053;-70
2021/06/30 00:14:10;;;;;;;17.50;16.20;;;15.60;83.10;;;;;;5012748;29;20045;-70
2021/06/30 00:16:48;;;;;;;17.60;16.05;;;15.60;82.80;;;;;;5011973;29;20042;-72
2021/06/30 00:19:29;;;;;;;17.90;16.30;;;15.60;81.90;;;;;;5013311;29;20045;-71
2021/06/30 00:22:06;;;;;;;17.75;16.35;;;15.60;81.80;;;;;;5013744;29;20041;-71
2021/06/30 00:24:42;;;;;;;17.42;16.13;;;15.60;81.60;;;;;;5010861;29;20502;-71
2021/06/30 00:27:19;;;;;;;17.63;16.33;;;15.70;81.30;;;;;;5012636;29;20049;-72
2021/06/30 00:29:56;;;;;;;18.15;16.75;;;15.60;81.40;;;;;;5014079;29;20045;-70
2021/06/30 00:32:33;;;;;;;17.77;16.38;;;15.70;82.30;;;;;;5012283;29;20077;-70
2021/06/30 00:35:13;;;;;;;17.50;16.20;;;15.60;81.90;;;;;;5013493;29;20121;-70
2021/06/30 00:37:50;;;;;;;18.27;16.67;;;15.60;81.90;;;;;;5010870;29;20045;-70
2021/06/30 00:40:27;;;;;;;17.48;16.17;;;15.50;82.50;;;;;;5011915;29;20093;-71
2021/06/30 00:43:04;;;;;;;17.55;16.25;;;15.50;82.20;;;;;;5011531;29;20053;-70
2021/06/30 00:45:41;;;;;;;17.75;16.42;;;15.50;81.90;;;;;;5012704;29;20057;-71
2021/06/30 00:48:14;;;;;;;17.75;16.35;;;15.60;81.80;;;;;;5011164;29;20046;-70
2021/06/30 00:50:46;;;;;;;17.48;16.17;;;15.60;83.20;;;;;;5014762;29;20073;-71
2021/06/30 00:53:22;;;;;;;17.63;16.25;;;15.50;83.50;;;;;;5013140;29;20457;-70
2021/06/30 00:55:59;;;;;;;18.70;16.88;;;15.40;82.30;;;;;;5008526;29;20069;-72
2021/06/30 00:58:36;;;;;;;17.42;16.02;;;15.40;81.60;;;;;;5010682;29;20054;-72
2021/06/30 01:01:13;;;;;;;17.77;16.38;;;15.30;81.20;;;;;;5009869;29;20054;-71
2021/06/30 01:03:51;;;;;;;17.38;16.08;;;15.30;82.10;;;;;;5011548;29;20451;-71
2021/06/30 01:06:28;;;;;;;17.60;16.20;;;15.20;80.80;;;;;;5010092;29;20045;-71
2021/06/30 01:09:07;;;;;;;17.45;16.08;;;15.20;80.50;;;;;;5010881;29;20052;-72
2021/06/30 01:11:43;;;;;;;17.48;16.17;;;15.20;80.80;;;;;;5012863;29;20049;-72
2021/06/30 01:14:33;;;;;;;17.50;16.10;;;15.20;80.90;;;;;;5011361;29;20042;-73
2021/06/30 01:17:10;;;;;;;17.90;16.30;;;15.20;81.00;;;;;;5013260;29;20121;-72
2021/06/30 01:19:47;;;;;;;16.98;15.48;;;15.20;81.20;;;;;;5012569;29;20057;-72
2021/06/30 01:22:25;;;;;;;17.10;15.80;;;15.20;79.50;;;;;;5012296;29;20038;-72
2021/06/30 01:25:02;;;;;;;16.80;15.50;;;15.10;78.80;;;;;;5009610;29;20057;-73
2021/06/30 01:27:39;;;;;;;16.70;15.40;;;15.10;79.70;;;;;;5011526;29;20054;-73
2021/06/30 01:30:12;;;;;;;16.80;15.50;;;15.10;78.90;;;;;;5009651;29;20045;-73
2021/06/30 01:32:49;;;;;;;16.60;15.30;;;15.00;79.00;;;;;;5012633;29;20053;-72
2021/06/30 01:35:26;;;;;;;16.60;15.30;;;15.00;79.50;;;;;;5009792;29;20448;-72
2021/06/30 01:38:03;;;;;;;16.65;15.35;;;15.00;80.50;;;;;;5011946;29;20046;-73
2021/06/30 01:40:40;;;;;;;17.60;16.20;;;14.90;80.50;;;;;;5010571;29;20070;-73
2021/06/30 01:43:17;;;;;;;16.65;15.43;;;14.90;80.70;;;;;;5012858;29;20053;-73
2021/06/30 01:45:55;;;;;;;16.67;15.38;;;14.90;80.10;;;;;;5011980;29;20500;-72
2021/06/30 01:48:32;;;;;;;17.00;15.50;;;14.90;79.60;;;;;;5011985;29;20041;-73
2021/06/30 01:51:09;;;;;;;16.52;15.32;;;14.70;76.60;;;;;;5010826;29;20037;-72
2021/06/30 01:53:45;;;;;;;16.42;15.13;;;14.60;76.40;;;;;;5012142;29;20098;-72
2021/06/30 01:56:27;;;;;;;16.10;14.90;;;14.50;77.30;;;;;;5008398;29;20049;-73
2021/06/30 01:59:09;;;;;;;16.42;15.20;;;14.50;77.80;;;;;;5011346;29;20038;-72
2021/06/30 02:01:44;;;;;;;16.42;15.23;;;14.50;78.10;;;;;;5015723;29;20061;-73
2021/06/30 02:04:16;;;;;;;16.70;15.32;;;14.60;78.20;;;;;;5012174;29;20042;-73
2021/06/30 02:06:53;;;;;;;17.13;15.70;;;14.60;78.50;;;;;;5010096;29;20102;-73
2021/06/30 02:09:29;;;;;;;16.85;15.65;;;14.60;78.40;;;;;;5010648;29;20050;-73
2021/06/30 02:12:06;;;;;;;17.02;15.75;;;14.50;76.20;;;;;;5009169;29;20466;-73
2021/06/30 02:14:43;;;;;;;16.70;15.40;;;14.40;80.20;;;;;;5014060;29;20418;-72
2021/06/30 02:17:20;;;;;;;16.40;15.20;;;14.40;81.00;;;;;;5010381;29;20050;-72
2021/06/30 02:19:57;;;;;;;16.58;15.27;;;14.40;79.90;;;;;;5009960;29;20509;-72
2021/06/30 02:22:34;;;;;;;16.55;15.35;;;14.40;79.70;;;;;;5014530;29;20038;-73
2021/06/30 02:25:14;;;;;;;16.50;15.30;;;14.40;79.70;;;;;;5017476;29;20046;-71
2021/06/30 02:27:51;;;;;;;16.10;14.90;;;14.30;79.30;;;;;;5015954;29;20524;-73
2021/06/30 02:30:31;;;;;;;16.25;14.95;;;14.30;78.80;;;;;;5015184;29;20049;-72
2021/06/30 02:33:08;;;;;;;16.40;15.20;;;14.20;79.00;;;;;;5016249;29;20109;-73
2021/06/30 02:35:45;;;;;;;16.20;15.00;;;14.20;79.50;;;;;;5014445;29;20525;-72
2021/06/30 02:38:21;;;;;;;16.40;15.10;;;14.20;81.10;;;;;;5014513;29;20129;-72
2021/06/30 02:40:58;;;;;;;16.15;14.85;;;14.10;79.80;;;;;;5032318;29;20049;-73
2021/06/30 02:43:35;;;;;;;16.13;14.93;;;13.90;80.40;;;;;;5014297;29;20497;-72
2021/06/30 02:46:12;;;;;;;16.60;15.40;;;13.80;79.40;;;;;;5013685;29;20045;-72
2021/06/30 02:48:49;;;;;;;15.98;14.77;;;13.70;79.40;;;;;;5013200;29;20049;-71
2021/06/30 02:51:26;;;;;;;15.98;14.77;;;13.60;79.60;;;;;;5015302;29;20086;-72
2021/06/30 02:54:02;;;;;;;16.33;15.13;;;13.60;80.20;;;;;;5011409;29;20045;-72
2021/06/30 02:56:39;;;;;;;16.23;15.02;;;13.60;79.80;;;;;;5013920;29;20084;-72
2021/06/30 02:59:16;;;;;;;16.10;14.90;;;13.50;79.70;;;;;;5014153;29;20038;-72
2021/06/30 03:01:53;;;;;;;15.77;14.63;;;13.40;80.60;;;;;;5013099;29;20045;-72
2021/06/30 03:04:30;;;;;;;16.27;14.98;;;13.40;81.00;;;;;;5014138;29;20042;-72
2021/06/30 03:07:06;;;;;;;16.30;15.00;;;13.40;81.00;;;;;;5016834;29;20050;-72
2021/06/30 03:09:43;;;;;;;16.38;15.15;;;13.40;81.20;;;;;;5013596;29;20053;-72
2021/06/30 03:12:20;;;;;;;16.08;14.88;;;13.30;81.30;;;;;;5012708;29;20050;-73
2021/06/30 03:14:57;;;;;;;16.13;14.93;;;13.30;80.60;;;;;;5012319;29;20050;-71
2021/06/30 03:17:30;;;;;;;16.15;14.85;;;13.20;81.50;;;;;;5012815;29;20446;-72
2021/06/30 03:20:11;;;;;;;16.33;15.02;;;13.20;81.30;;;;;;5017452;29;20767;-72
2021/06/30 03:22:48;;;;;;;16.08;14.88;;;13.20;80.70;;;;;;5012829;29;20050;-71
2021/06/30 03:25:26;;;;;;;15.68;14.57;;;13.10;80.50;;;;;;5011236;29;20043;-73
2021/06/30 03:28:03;;;;;;;16.15;14.95;;;13.10;81.50;;;;;;5028356;29;20505;-70
2021/06/30 03:30:35;;;;;;;16.05;14.85;;;13.10;81.30;;;;;;5016158;29;20056;-72
2021/06/30 03:33:12;;;;;;;15.48;14.38;;;13.10;81.30;;;;;;5012169;29;20050;-72
2021/06/30 03:35:49;;;;;;;15.85;14.65;;;13.10;80.90;;;;;;5015194;29;20091;-71
2021/06/30 03:38:26;;;;;;;15.70;14.55;;;13.20;81.50;;;;;;5012130;29;20045;-73
2021/06/30 03:41:02;;;;;;;15.45;14.35;;;13.20;80.80;;;;;;5012506;29;20045;-72
2021/06/30 03:43:39;;;;;;;16.15;14.95;;;13.10;80.90;;;;;;5012377;29;20053;-72
2021/06/30 03:46:16;;;;;;;15.75;14.55;;;13.10;82.00;;;;;;5012990;29;20052;-71
2021/06/30 03:48:53;;;;;;;16.08;14.88;;;13.10;82.20;;;;;;5011913;29;20054;-73
2021/06/30 03:51:30;;;;;;;15.98;14.77;;;13.10;82.30;;;;;;5011804;29;20050;-72
2021/06/30 03:54:09;;;;;;;15.90;14.70;;;13.00;82.50;;;;;;5013963;29;20061;-72
2021/06/30 03:56:46;;;;;;;16.13;14.88;;;13.00;82.80;;;;;;5011497;29;20046;-72
2021/06/30 03:59:23;;;;;;;16.17;14.98;;;13.00;82.40;;;;;;5015609;29;20057;-71
2021/06/30 04:01:59;;;;;;;15.95;14.75;;;12.90;82.50;;;;;;5012954;29;20409;-72
2021/06/30 04:04:36;;;;;;;15.95;14.75;;;13.10;82.30;;;;;;5013371;29;20041;-70
2021/06/30 04:07:13;;;;;;;15.75;14.55;;;13.00;82.70;;;;;;5015012;29;20053;-71
2021/06/30 04:09:50;;;;;;;15.98;14.70;;;13.00;82.90;;;;;;5012287;29;20142;-71
2021/06/30 04:12:27;;;;;;;15.38;14.27;;;13.10;82.90;;;;;;5012833;29;20557;-70
2021/06/30 04:15:04;;;;;;;15.63;14.43;;;13.00;82.80;;;;;;5012138;29;20049;-71
2021/06/30 04:17:41;;;;;;;15.60;14.50;;;13.00;82.90;;;;;;5011056;29;20050;-72
2021/06/30 04:20:18;;;;;;;15.52;14.43;;;13.00;82.80;;;;;;5014118;29;20120;-72
2021/06/30 04:22:55;;;;;;;15.10;14.00;;;13.10;83.10;;;;;;5013371;29;20067;-72
2021/06/30 04:25:32;;;;;;;15.38;14.18;;;13.10;82.90;;;;;;5010841;29;20447;-71
2021/06/30 04:28:09;;;;;;;15.02;13.93;;;13.10;83.50;;;;;;5012711;29;20057;-71
2021/06/30 04:30:45;;;;;;;15.27;14.18;;;13.10;83.10;;;;;;5013432;29;20061;-72
2021/06/30 04:33:22;;;;;;;15.07;13.98;;;13.10;82.80;;;;;;5013226;29;20050;-72
2021/06/30 04:35:59;;;;;;;15.50;14.40;;;13.10;82.60;;;;;;5011914;29;20573;-71
2021/06/30 04:38:36;;;;;;;15.68;14.57;;;13.10;82.90;;;;;;5012339;29;20053;-71
2021/06/30 04:41:13;;;;;;;15.63;14.52;;;13.10;82.50;;;;;;5010633;29;20057;-71
2021/06/30 04:43:50;;;;;;;15.57;14.48;;;13.10;83.30;;;;;;5009255;29;20102;-72
2021/06/30 04:46:27;;;;;;;15.25;14.15;;;13.10;82.90;;;;;;5011576;29;20728;-71
2021/06/30 04:49:04;;;;;;;15.20;14.07;;;13.10;82.60;;;;;;5012192;29;20450;-73
2021/06/30 04:51:42;;;;;;;15.20;14.10;;;13.10;83.00;;;;;;5012569;29;20057;-71
2021/06/30 04:54:21;;;;;;;15.43;14.32;;;13.10;83.40;;;;;;5007856;29;20053;-71
2021/06/30 04:56:57;;;;;;;15.43;14.07;;;13.20;82.30;;;;;;5024635;29;20045;-72
2021/06/30 04:59:34;;;;;;;15.55;14.35;;;13.30;81.80;;;;;;5010560;29;20061;-71
2021/06/30 05:02:11;;;;;;;15.77;14.68;;;13.30;82.60;;;;;;5012073;29;20045;-72
2021/06/30 05:04:48;;;;;;;16.08;14.88;;;13.30;82.30;;;;;;5014623;29;20046;-72
2021/06/30 05:07:25;;;;;;;15.60;14.40;;;13.30;82.50;;;;;;5011897;29;20062;-73
2021/06/30 05:10:02;;;;;;;15.77;14.57;;;13.20;82.80;;;;;;5010732;29;20050;-73
2021/06/30 05:12:39;;;;;;;15.80;14.50;;;13.30;83.40;;;;;;5010099;29;20113;-70
2021/06/30 05:15:16;;;;;;;15.90;14.60;;;13.30;83.60;;;;;;5010238;29;20750;-71
2021/06/30 05:17:48;;;;;;;15.80;14.60;;;13.30;82.00;;;;;;5011286;29;20055;-71
2021/06/30 05:20:25;;;;;;;15.73;14.52;;;13.40;82.80;;;;;;5011706;29;20561;-70
2021/06/30 05:23:03;;;;;;;15.90;14.70;;;13.50;82.70;;;;;;5012530;29;20038;-72
2021/06/30 05:25:39;;;;;;;15.80;14.63;;;13.60;82.40;;;;;;5011469;29;20053;-69
2021/06/30 05:28:17;;;;;;;15.82;14.63;;;13.60;82.80;;;;;;5011459;29;20503;-71
2021/06/30 05:30:53;;;;;;;16.00;14.77;;;13.80;81.60;;;;;;5014388;29;20104;-71
2021/06/30 05:33:30;;;;;;;15.95;14.75;;;13.80;81.30;;;;;;5010071;29;20460;-72
2021/06/30 05:36:07;;;;;;;16.13;14.82;;;13.80;82.60;;;;;;5009399;29;20054;-71
2021/06/30 05:38:44;;;;;;;15.60;14.40;;;13.90;82.00;;;;;;5011222;29;20079;-70
2021/06/30 05:41:21;;;;;;;15.38;14.27;;;13.90;81.90;;;;;;5010797;29;20085;-70
2021/06/30 05:43:58;;;;;;;15.68;14.48;;;14.00;81.30;;;;;;5007295;29;20054;-69
2021/06/30 05:46:35;;;;;;;15.43;14.32;;;14.10;80.60;;;;;;5009702;29;20387;-68
2021/06/30 05:49:12;;;;;;;15.88;14.77;;;14.10;81.40;;;;;;5012040;29;20050;-69
2021/06/30 05:51:49;;;;;;;15.88;14.68;;;14.10;81.50;;;;;;5010354;29;20086;-68
2021/06/30 05:54:26;;;;;;;15.73;14.52;;;14.20;82.10;;;;;;5008566;29;20047;-69
2021/06/30 05:57:03;;;;;;;15.90;14.70;;;14.30;81.90;;;;;;5013121;29;20057;-69
2021/06/30 05:59:40;;;;;;;15.85;14.65;;;14.40;81.40;;;;;;5015137;29;20049;-69
2021/06/30 06:02:16;;;;;;;16.02;14.82;;;14.50;81.40;;;;;;5014148;29;20037;-69
2021/06/30 06:04:53;;;;;;;16.10;14.90;;;14.60;81.70;;;;;;5014673;29;20054;-69
2021/06/30 06:07:30;;;;;;;15.80;14.70;;;14.60;80.10;;;;;;4998904;29;20527;-70
2021/06/30 06:10:12;;;;;;;15.80;14.70;;;14.70;79.80;;;;;;5013606;29;20073;-71
2021/06/30 06:12:49;;;;;;;15.50;14.30;;;14.80;80.70;;;;;;5016038;29;20080;-69
2021/06/30 06:15:26;;;;;;;15.30;14.20;;;14.80;80.60;;;;;;5013198;29;20053;-70
2021/06/30 06:18:06;;;;;;;15.70;14.60;;;14.80;79.00;;;;;;5011036;29;20124;-70
2021/06/30 06:20:43;;;;;;;15.65;14.45;;;14.90;79.00;;;;;;5027881;29;20058;-68
2021/06/30 06:23:20;;;;;;;15.65;14.45;;;15.00;80.00;;;;;;5011927;29;20635;-68
2021/06/30 06:25:57;;;;;;;16.10;14.90;;;15.00;80.50;;;;;;5017878;29;20050;-68
2021/06/30 06:28:34;;;;;;;15.82;14.63;;;15.10;80.10;;;;;;5011684;29;20058;-67
2021/06/30 06:31:15;;;;;;;16.08;14.88;;;15.10;80.20;;;;;;5011910;29;20050;-68
2021/06/30 06:33:52;;;;;;;16.63;15.40;;;15.10;79.80;;;;;;5014318;29;20046;-69
2021/06/30 06:36:29;;;;;;;16.15;14.95;;;15.10;80.70;;;;;;5012279;29;20514;-69
2021/06/30 06:39:06;;;;;;;16.40;15.20;;;15.20;80.70;;;;;;5016731;29;20078;-69
2021/06/30 06:41:43;;;;;;;16.27;15.02;;;15.20;80.60;;;;;;5011600;29;20049;-68
2021/06/30 06:44:21;;;;;;;16.73;15.43;;;15.20;80.40;;;;;;5014309;29;20042;-70
2021/06/30 06:46:57;;;;;;;16.15;14.95;;;15.30;80.00;;;;;;4999822;29;20033;-67
2021/06/30 06:49:34;;;;;;;16.42;14.93;;;15.30;80.10;;;;;;4991731;29;20045;-68
2021/06/30 06:52:11;;;;;;;16.35;15.05;;;15.30;79.80;;;;;;4994029;29;20037;-67
2021/06/30 06:54:48;;;;;;;16.13;14.93;;;15.30;77.80;;;;;;4991084;29;20536;-68
2021/06/30 06:57:25;;;;;;;16.20;14.90;;;15.30;78.10;;;;;;5010124;29;20042;-67
2021/06/30 07:00:04;;;;;;;16.15;14.95;;;15.30;79.10;;;;;;4993676;29;20053;-67
2021/06/30 07:02:41;;;;;;;16.13;14.93;;;15.30;79.00;;;;;;4994397;29;20437;-67
2021/06/30 07:05:18;;;;;;;15.65;14.55;;;15.40;79.50;;;;;;4994541;29;20805;-68
2021/06/30 07:07:55;;;;;;;16.00;14.80;;;15.50;78.50;;;;;;4993901;29;20054;-70
2021/06/30 07:10:32;;;;;;;16.27;15.07;;;15.50;78.00;;;;;;4993178;29;20052;-68
2021/06/30 07:13:13;;;;;;;16.30;15.10;;;15.50;79.10;;;;;;4994778;29;20045;-70
2021/06/30 07:15:49;;;;;;;16.20;15.00;;;15.60;78.00;;;;;;4992260;29;20527;-68
2021/06/30 07:18:26;;;;;;;15.73;14.55;;;15.60;76.10;;;;;;4991814;29;20060;-69
2021/06/30 07:21:04;;;;;;;15.93;14.73;;;15.60;75.40;;;;;;4991846;29;20269;-68
2021/06/30 07:23:41;;;;;;;16.00;14.80;;;15.70;75.50;;;;;;4993490;29;20057;-68
2021/06/30 07:26:17;;;;;;;15.35;14.25;;;15.70;76.80;;;;;;4992008;29;21025;-67
2021/06/30 07:28:54;;;;;;;15.68;14.57;;;15.70;77.00;;;;;;4994136;29;20095;-67
2021/06/30 07:31:31;;;;;;;15.95;14.80;;;15.80;76.20;;;;;;4997535;29;20418;-67
2021/06/30 07:34:08;;;;;;;16.08;14.85;;;15.80;76.00;;;;;;4992824;29;20565;-69
2021/06/30 07:36:45;;;;;;;15.63;14.52;;;15.80;76.00;;;;;;4992647;29;20253;-69
2021/06/30 07:39:24;;;;;;;15.65;14.40;;;15.80;76.00;;;;;;4995038;29;20049;-69
2021/06/30 07:42:01;;;;;;;15.35;14.25;;;15.80;75.60;;;;;;4992008;29;20083;-70
2021/06/30 07:44:38;;;;;;;15.50;14.40;;;15.80;74.70;;;;;;4988506;29;20175;-70
2021/06/30 07:47:10;;;;;;;15.68;14.48;;;15.80;75.50;;;;;;4995372;29;20072;-69
2021/06/30 07:49:42;;;;;;;15.82;14.68;;;15.70;75.50;;;;;;4990767;29;20107;-69
2021/06/30 07:52:14;;;;;;;15.48;14.38;;;15.70;76.40;;;;;;5013179;29;20053;-69
2021/06/30 07:54:46;;;;;;;15.52;14.32;;;15.50;76.20;;;;;;5004632;29;20135;-68
2021/06/30 07:57:21;;;;;;;15.50;14.30;;;15.40;74.00;;;;;;5016350;29;20944;-70
2021/06/30 07:59:53;;;;;;;15.50;14.30;;;15.30;73.80;;;;;;5030909;29;20121;-69
2021/06/30 08:02:24;;;;;;;15.15;14.05;;;15.20;75.20;;;;;;5012253;29;20125;-69
2021/06/30 08:04:56;;;;;;;15.70;14.38;;;15.00;74.00;;;;;;5011885;29;20574;-69
2021/06/30 08:07:28;;;;;;;15.70;14.43;;;15.00;75.70;;;;;;5011707;29;20805;-68
2021/06/30 08:10:02;;;;;;;15.45;14.25;;;14.90;76.60;;;;;;5014595;29;20044;-69
2021/06/30 08:12:35;;;;;;;15.70;14.30;;;14.70;75.90;;;;;;5010508;29;20160;-69
2021/06/30 08:15:08;;;;;;;15.45;14.27;;;14.70;77.30;;;;;;5010546;29;20041;-68
2021/06/30 08:17:44;;;;;;;15.55;14.45;;;14.70;78.20;;;;;;5010471;29;20543;-69
2021/06/30 08:20:16;;;;;;;15.30;14.20;;;14.60;78.60;;;;;;5011516;29;20121;-70
2021/06/30 08:22:48;;;;;;;15.98;14.68;;;14.60;77.70;;;;;;5011561;29;20064;-69
2021/06/30 08:25:22;;;;;;;15.43;14.23;;;14.60;78.70;;;;;;5013358;29;20074;-68
2021/06/30 08:27:57;;;;;;;15.57;14.38;;;14.60;78.00;;;;;;5008682;29;20432;-68
2021/06/30 08:30:29;;;;;;;15.65;14.45;;;14.40;77.00;;;;;;5012974;29;20130;-68
2021/06/30 08:33:02;;;;;;;15.70;14.50;;;14.40;77.50;;;;;;5012066;29;20601;-70
2021/06/30 08:35:34;;;;;;;15.43;14.23;;;14.20;79.10;;;;;;5008991;29;20502;-70
2021/06/30 08:38:06;;;;;;;15.38;14.27;;;14.30;79.30;;;;;;5011903;29;20054;-69
2021/06/30 08:40:38;;;;;;;15.43;14.32;;;14.30;77.60;;;;;;5009618;29;20065;-69
2021/06/30 08:43:10;;;;;;;15.20;14.10;;;14.30;78.40;;;;;;5013363;29;20073;-70
2021/06/30 08:45:42;;;;;;;15.38;14.07;;;14.20;78.00;;;;;;5009793;29;20069;-70
2021/06/30 08:48:16;;;;;;;15.05;13.85;;;14.30;78.50;;;;;;5012899;29;20061;-69
2021/06/30 08:50:50;;;;;;;14.75;13.65;;;14.20;79.90;;;;;;5012543;29;20055;-70
2021/06/30 08:53:22;;;;;;;15.10;14.00;;;14.20;79.40;;;;;;5013968;29;20573;-70
2021/06/30 08:55:55;;;;;;;15.02;13.93;;;14.30;80.30;;;;;;5009027;29;20077;-69
2021/06/30 08:58:27;;;;;;;15.32;14.13;;;14.40;79.70;;;;;;5012109;29;20107;-70
2021/06/30 09:01:00;;;;;;;14.93;13.82;;;14.60;79.60;;;;;;5012260;29;20061;-70
2021/06/30 09:03:32;;;;;;;15.27;14.18;;;14.70;80.00;;;;;;5012466;29;20092;-70
2021/06/30 09:06:13;;;;;;;15.73;14.52;;;14.80;79.00;;;;;;5008369;29;20045;-71
2021/06/30 09:08:48;;;;;;;15.38;14.27;;;14.90;79.60;;;;;;5011891;29;20382;-70
2021/06/30 09:11:26;;;;;;;15.30;14.20;;;14.90;79.60;;;;;;5023659;29;20133;-69
2021/06/30 09:14:24;;;;;;;15.43;14.32;;;14.90;79.30;;;;;;5009218;29;20049;-69
2021/06/30 09:17:21;;;;;;;15.15;14.05;;;14.90;79.50;;;;;;5009086;29;21047;-70
2021/06/30 09:20:02;;;;;;;15.27;14.18;;;14.80;79.00;;;;;;5013442;29;20169;-69
2021/06/30 09:22:50;;;;;;;15.38;14.27;;;14.60;80.00;;;;;;5013436;29;20046;-69
2021/06/30 09:25:34;;;;;;;15.90;14.60;;;14.60;79.70;;;;;;5011333;29;21158;-69
2021/06/30 09:28:24;;;;;;;15.77;14.57;;;14.50;80.40;;;;;;5013680;29;20082;-69
2021/06/30 09:31:05;;;;;;;16.33;14.93;;;14.40;80.10;;;;;;5028087;29;20542;-70
2021/06/30 09:33:50;;;;;;;15.48;14.35;;;14.40;81.20;;;;;;5010686;29;20302;-69
2021/06/30 09:36:25;;;;;;;15.38;14.18;;;14.40;79.90;;;;;;5014053;29;20102;-70
2021/06/30 09:39:07;;;;;;;15.30;14.20;;;14.50;78.80;;;;;;5012697;29;20130;-70
2021/06/30 09:41:44;;;;;;;15.02;13.93;;;14.40;79.20;;;;;;5012574;29;20471;-69
2021/06/30 09:44:20;;;;;;;15.20;14.10;;;14.40;80.10;;;;;;5013304;29;20041;-69
2021/06/30 09:46:54;;;;;;;15.38;14.27;;;14.50;80.40;;;;;;5014844;29;20052;-69
2021/06/30 09:49:27;;;;;;;15.02;13.93;;;14.60;80.30;;;;;;5013899;29;20411;-69
2021/06/30 09:52:10;;;;;;;16.50;15.13;;;14.60;78.90;;;;;;5018015;29;20073;-68
2021/06/30 09:54:45;;;;;;;15.65;14.45;;;14.60;80.50;;;;;;5029248;29;20060;-69
2021/06/30 09:57:18;;;;;;;15.80;14.65;;;14.60;80.20;;;;;;5014585;29;20061;-69
2021/06/30 09:59:49;;;;;;;15.88;14.68;;;14.60;81.40;;;;;;5014324;29;20556;-69
2021/06/30 10:02:23;;;;;;;15.73;14.52;;;14.80;80.80;;;;;;5030909;29;20065;-69
2021/06/30 10:05:00;;;;;;;15.70;14.50;;;14.80;80.40;;;;;;5009640;29;20052;-70
2021/06/30 10:07:33;;;;;;;16.30;15.10;;;14.90;81.40;;;;;;5013454;29;20042;-70
2021/06/30 10:10:08;;;;;;;16.00;14.80;;;15.10;80.60;;;;;;5013228;29;20121;-68
2021/06/30 10:12:40;;;;;;;16.52;15.30;;;15.20;81.10;;;;;;5014056;29;20518;-69
2021/06/30 10:15:12;;;;;;;15.57;14.38;;;15.20;80.20;;;;;;5012469;29;20046;-70
2021/06/30 10:17:44;;;;;;;15.65;14.45;;;15.20;79.10;;;;;;5013309;29;20058;-69
2021/06/30 10:20:18;;;;;;;15.77;14.57;;;15.20;80.50;;;;;;5031941;29;20054;-69
2021/06/30 10:22:50;;;;;;;15.88;14.68;;;15.30;80.80;;;;;;5013607;29;20121;-69
2021/06/30 10:25:22;;;;;;;15.90;14.70;;;15.20;78.00;;;;;;5014218;29;20041;-70
2021/06/30 10:27:55;;;;;;;15.93;14.73;;;15.10;78.00;;;;;;5014930;29;20072;-69
2021/06/30 10:30:27;;;;;;;15.95;14.75;;;15.10;80.60;;;;;;5015598;29;20141;-69
2021/06/30 10:33:01;;;;;;;15.63;14.43;;;15.10;79.40;;;;;;5014122;29;20049;-69
2021/06/30 10:35:46;;;;;;;16.40;15.20;;;15.30;80.50;;;;;;5011377;29;20082;-69
2021/06/30 10:38:18;;;;;;;16.38;15.18;;;15.50;78.20;;;;;;5019451;29;20044;-69
2021/06/30 10:40:51;;;;;;;16.25;14.93;;;15.60;78.30;;;;;;5013131;29;20065;-69
2021/06/30 10:43:23;;;;;;;16.20;15.00;;;15.60;79.10;;;;;;5013322;29;20110;-70
2021/06/30 10:46:24;;;;;;;16.05;14.82;;;15.70;78.50;;;;;;5011455;29;20050;-70
2021/06/30 10:49:19;;;;;;;16.10;14.90;;;15.70;78.60;;;;;;5012642;29;20042;-69
2021/06/30 10:52:01;;;;;;;15.70;14.55;;;15.80;76.10;;;;;;5012399;29;20074;-69
2021/06/30 10:54:44;;;;;;;15.85;14.70;;;15.80;76.50;;;;;;5012270;29;20042;-69
2021/06/30 10:57:19;;;;;;;16.25;15.05;;;15.80;75.90;;;;;;5012614;29;20073;-69
2021/06/30 11:00:06;;;;;;;15.52;14.40;;;15.70;74.40;;;;;;5013650;29;20054;-70
2021/06/30 11:02:38;;;;;;;16.10;14.90;;;15.50;73.80;;;;;;5011977;29;20058;-69
2021/06/30 11:05:13;;;;;;;16.00;14.65;;;15.50;75.20;;;;;;5013611;29;20069;-69
2021/06/30 11:07:46;;;;;;;16.10;14.90;;;15.50;74.50;;;;;;5016620;29;20045;-69
2021/06/30 11:10:21;;;;;;;16.27;15.07;;;15.60;74.50;;;;;;5010618;29;20053;-69
2021/06/30 11:12:54;;;;;;;16.20;14.80;;;15.70;75.30;;;;;;5014952;29;20113;-69
2021/06/30 11:15:39;;;;;;;16.20;14.90;;;15.80;74.70;;;;;;5011882;29;20133;-70
2021/06/30 11:18:11;;;;;;;16.30;15.10;;;15.90;72.00;;;;;;5014543;29;20059;-69
2021/06/30 11:20:49;;;;;;;16.73;15.52;;;16.00;73.80;;;;;;5011237;29;20616;-69
2021/06/30 11:23:22;;;;;;;16.42;15.23;;;16.20;72.70;;;;;;5013445;29;20049;-70
2021/06/30 11:26:15;;;;;;;16.90;15.68;;;16.40;73.20;;;;;;5011406;29;20073;-69
2021/06/30 11:28:47;;;;;;;17.10;15.70;;;16.80;70.30;;;;;;5015741;29;20597;-69
2021/06/30 11:31:25;;;;;;;17.23;15.90;;;17.10;68.00;;;;;;5013481;29;20115;-69
2021/06/30 11:34:16;;;;;;;17.15;15.85;;;17.30;72.30;;;;;;5012502;29;20102;-69
2021/06/30 11:36:48;;;;;;;17.02;15.77;;;17.50;70.00;;;;;;5011829;29;20149;-69
2021/06/30 11:39:21;;;;;;;17.10;15.80;;;17.60;66.70;;;;;;5013667;29;20156;-69
2021/06/30 11:41:53;;;;;;;16.83;15.52;;;17.80;68.80;;;;;;5012710;29;20042;-70
2021/06/30 11:44:36;;;;;;;17.23;15.93;;;17.90;64.20;;;;;;5011976;29;20098;-69
2021/06/30 11:47:08;;;;;;;17.33;16.02;;;18.00;65.80;;;;;;5011617;29;20045;-70
2021/06/30 11:49:40;;;;;;;17.67;16.38;;;18.10;63.70;;;;;;5012866;29;20460;-69
2021/06/30 11:52:14;;;;;;;17.63;16.33;;;18.10;63.30;;;;;;5011355;29;20053;-69
2021/06/30 11:54:54;;;;;;;17.23;15.90;;;18.20;67.70;;;;;;5007913;29;20125;-70
2021/06/30 11:57:27;;;;;;;;;;;18.20;65.60;;;;;;5012003;29;20491;-70
2021/06/30 12:00:11;;;;;;;16.08;14.88;;;18.20;65.90;;;;;;5013718;29;19981;-69
2021/06/30 12:02:55;;;;;;;16.85;15.65;;;18.20;65.00;;;;;;5014928;29;20054;-69
2021/06/30 12:05:30;;;;;;;17.20;15.90;;;18.20;66.40;;;;;;5010885;29;20045;-69
2021/06/30 12:08:03;;;;;;;16.98;15.70;;;18.30;65.00;;;;;;5012400;29;20656;-69
2021/06/30 12:10:37;;;;;;;17.05;15.55;;;18.40;65.60;;;;;;5013459;29;20129;-69
2021/06/30 12:13:12;;;;;;;16.67;15.48;;;18.50;63.90;;;;;;5013291;29;20553;-70
2021/06/30 12:15:44;;;;;;;16.75;15.55;;;18.50;63.30;;;;;;5009103;29;20112;-69
2021/06/30 12:18:22;;;;;;;16.55;15.35;;;18.60;64.10;;;;;;5012758;29;20045;-69
2021/06/30 12:20:54;;;;;;;16.65;15.45;;;18.70;65.10;;;;;;5011204;29;20573;-70
2021/06/30 12:23:26;;;;;;;16.98;15.68;;;18.80;63.30;;;;;;5012637;29;20455;-69
2021/06/30 12:26:05;;;;;;;16.67;15.38;;;18.90;61.30;;;;;;5011728;29;20060;-70
2021/06/30 12:28:45;;;;;;;17.08;15.77;;;19.00;60.90;;;;;;5011812;29;20068;-70
2021/06/30 12:31:17;;;;;;;;;;;19.00;59.80;;;;;;5012181;29;20046;-69
2021/06/30 12:33:49;;;;;;;17.45;15.63;;;19.00;62.30;;;;;;5011802;29;20476;-68
2021/06/30 12:36:24;;;;;;;42.22;17.00;;;19.00;60.50;;;;;;5009140;29;20577;-69
2021/06/30 12:39:16;;;;;;;29.65;16.15;;;18.70;60.70;;;;;;5008505;29;20086;-70
2021/06/30 12:41:53;;;;;;;16.38;15.18;;;18.60;61.30;;;;;;5014308;29;20094;-70
2021/06/30 12:44:27;;;;;;;16.40;15.10;;;18.40;62.90;;;;;;5012499;29;20070;-70
2021/06/30 12:47:12;;;;;;;17.65;15.98;;;18.30;61.00;;;;;;5014503;29;20044;-70
2021/06/30 12:49:56;;;;;;;16.73;15.35;;;18.30;61.80;;;;;;5009633;29;20168;-69
2021/06/30 12:52:30;;;;;;;16.30;15.00;;;18.30;62.40;;;;;;5008169;29;20920;-70
2021/06/30 12:55:07;;;;;;;16.45;15.15;;;18.40;60.70;;;;;;5023955;29;20128;-69
2021/06/30 12:58:05;;;;;;;16.58;15.27;;;18.30;61.40;;;;;;5010100;29;20057;-69
2021/06/30 13:00:37;;;;;;;16.35;15.15;;;18.20;60.30;;;;;;5009344;29;20145;-69
2021/06/30 13:03:14;;;;;;;16.48;15.18;;;18.20;61.80;;;;;;5009378;29;20077;-69
2021/06/30 13:05:49;;;;;;;16.33;15.13;;;18.20;62.70;;;;;;5007459;29;20053;-69
2021/06/30 13:08:31;;;;;;;16.23;15.02;;;18.10;58.90;;;;;;5011211;29;20057;-70
2021/06/30 13:11:21;;;;;;;16.58;15.38;;;18.10;58.50;;;;;;5011634;29;20045;-69
2021/06/30 13:14:12;;;;;;;17.35;16.05;;;18.20;60.10;;;;;;5010087;29;20053;-69
2021/06/30 13:17:01;;;;;;;16.73;15.52;;;18.50;55.50;;;;;;5011653;29;20054;-69